createdAt,value
2019-01-25T00:00:16.677Z,1.16
2019-01-25T00:00:42.837Z,1.17
2019-01-25T00:01:08.985Z,1.22
2019-01-25T00:01:35.141Z,1.23
2019-01-25T00:02:01.295Z,1.3
2019-01-25T00:02:27.454Z,1.31
2019-01-25T00:02:53.595Z,1.31
2019-01-25T00:03:21.027Z,1.32
2019-01-25T00:03:47.175Z,1.24
2019-01-25T00:04:13.328Z,1.32
2019-01-25T00:04:39.484Z,1.26
2019-01-25T00:05:05.641Z,1.2
2019-01-25T00:05:31.800Z,1.3
2019-01-25T00:05:57.951Z,1.23
2019-01-25T00:06:24.102Z,1.26
2019-01-25T00:06:50.255Z,1.28
2019-01-25T00:07:16.410Z,1.3
2019-01-25T00:07:42.556Z,1.3
2019-01-25T00:08:08.710Z,1.32
2019-01-25T00:08:34.902Z,1.26
2019-01-25T00:09:01.052Z,1.31
2019-01-25T00:09:27.214Z,1.28
2019-01-25T00:09:58.571Z,1.3
2019-01-25T00:10:20.599Z,1.32
2019-01-25T00:10:46.814Z,1.28
2019-01-25T00:11:12.970Z,1.26
2019-01-25T00:11:39.119Z,1.28
2019-01-25T00:12:05.276Z,1.32
2019-01-25T00:12:31.426Z,1.31
2019-01-25T00:12:57.582Z,1.3
2019-01-25T00:13:23.736Z,1.23
2019-01-25T00:13:49.889Z,1.31
2019-01-25T00:14:16.042Z,1.24
2019-01-25T00:14:42.193Z,1.13
2019-01-25T00:15:08.357Z,1.04
2019-01-25T00:15:34.505Z,1.05
2019-01-25T00:16:00.661Z,0.88
2019-01-25T00:16:26.818Z,0.96
2019-01-25T00:16:52.974Z,0.96
2019-01-25T00:17:19.181Z,0.95
2019-01-25T00:17:45.338Z,1.08
2019-01-25T00:18:11.486Z,1.02
2019-01-25T00:18:37.640Z,0.99
2019-01-25T00:19:03.834Z,1.08
2019-01-25T00:19:30.027Z,1.14
2019-01-25T00:19:56.282Z,1.1
2019-01-25T00:20:22.510Z,1.01
2019-01-25T00:20:48.664Z,1.05
2019-01-25T00:21:14.809Z,1.06
2019-01-25T00:21:40.967Z,1.01
2019-01-25T00:22:07.124Z,1.01
2019-01-25T00:22:33.274Z,0.96
2019-01-25T00:22:59.422Z,0.96
2019-01-25T00:23:25.581Z,0.99
2019-01-25T00:23:51.788Z,0.99
2019-01-25T00:24:18.082Z,1.08
2019-01-25T00:24:44.309Z,1.1
2019-01-25T00:25:10.575Z,1.04
2019-01-25T00:25:36.725Z,1.02
2019-01-25T00:26:02.882Z,1.06
2019-01-25T00:26:29.042Z,0.95
2019-01-25T00:26:55.208Z,1.16
2019-01-25T00:27:21.341Z,1.17
2019-01-25T00:27:47.585Z,1.13
2019-01-25T00:28:13.742Z,1.02
2019-01-25T00:28:39.942Z,1.01
2019-01-25T00:29:06.092Z,0.95
2019-01-25T00:29:32.252Z,0.98
2019-01-25T00:29:58.441Z,0.91
2019-01-25T00:30:24.630Z,0.99
2019-01-25T00:30:50.775Z,0.92
2019-01-25T00:31:16.929Z,0.92
2019-01-25T00:31:43.324Z,0.96
2019-01-25T00:32:09.495Z,0.95
2019-01-25T00:32:35.686Z,0.98
2019-01-25T00:33:01.874Z,0.94
2019-01-25T00:33:28.021Z,0.94
2019-01-25T00:33:54.183Z,0.94
2019-01-25T00:34:20.328Z,0.94
2019-01-25T00:34:46.530Z,0.91
2019-01-25T00:35:12.713Z,0.91
2019-01-25T00:35:38.859Z,0.94
2019-01-25T00:36:05.021Z,0.99
2019-01-25T00:36:31.213Z,0.92
2019-01-25T00:36:57.404Z,0.98
2019-01-25T00:37:23.594Z,0.96
2019-01-25T00:37:49.749Z,1.06
2019-01-25T00:38:15.901Z,1.02
2019-01-25T00:38:42.056Z,0.99
2019-01-25T00:39:08.209Z,1.02
2019-01-25T00:39:34.360Z,0.96
2019-01-25T00:40:06.058Z,0.96
2019-01-25T00:40:27.694Z,1.06
2019-01-25T00:40:53.849Z,1.17
2019-01-25T00:41:20.001Z,1.1
2019-01-25T00:41:46.153Z,1.14
2019-01-25T00:42:12.309Z,1.05
2019-01-25T00:42:38.460Z,1.17
2019-01-25T00:43:04.615Z,1.14
2019-01-25T00:43:30.772Z,1.19
2019-01-25T00:43:56.929Z,1.16
2019-01-25T00:44:23.085Z,1.23
2019-01-25T00:44:49.236Z,1.28
2019-01-25T00:45:15.390Z,1.24
2019-01-25T00:45:41.534Z,1.28
2019-01-25T00:46:07.694Z,1.17
2019-01-25T00:46:33.850Z,1.23
2019-01-25T00:46:59.999Z,1.22
2019-01-25T00:47:26.197Z,1.24
2019-01-25T00:47:52.350Z,1.3
2019-01-25T00:48:18.502Z,1.24
2019-01-25T00:48:44.690Z,1.28
2019-01-25T00:49:11.844Z,1.23
2019-01-25T00:49:37.993Z,1.2
2019-01-25T00:50:04.159Z,1.14
2019-01-25T00:50:30.340Z,1.19
2019-01-25T00:50:56.488Z,1.19
2019-01-25T00:51:22.645Z,1.19
2019-01-25T00:51:48.797Z,1.3
2019-01-25T00:52:14.951Z,1.22
2019-01-25T00:52:41.102Z,1.3
2019-01-25T00:53:07.267Z,1.32
2019-01-25T00:53:33.460Z,1.22
2019-01-25T00:53:59.612Z,1.3
2019-01-25T00:54:25.762Z,1.24
2019-01-25T00:54:51.908Z,1.26
2019-01-25T00:55:18.061Z,1.23
2019-01-25T00:55:44.211Z,1.35
2019-01-25T00:56:10.363Z,1.3
2019-01-25T00:56:36.520Z,1.23
2019-01-25T00:57:02.710Z,1.23
2019-01-25T00:57:28.862Z,1.14
2019-01-25T00:57:55.022Z,1.17
2019-01-25T00:58:21.173Z,1.1
2019-01-25T00:58:47.328Z,1.04
2019-01-25T00:59:13.478Z,0.98
2019-01-25T00:59:39.642Z,1.05
2019-01-25T01:00:05.798Z,1.06
2019-01-25T01:00:31.944Z,1.04
2019-01-25T01:00:58.093Z,0.99
2019-01-25T01:01:24.248Z,0.98
2019-01-25T01:01:50.410Z,1.01
2019-01-25T01:02:16.571Z,1.02
2019-01-25T01:02:42.715Z,1.05
2019-01-25T01:03:08.881Z,0.99
2019-01-25T01:03:35.029Z,0.99
2019-01-25T01:04:01.178Z,1.05
2019-01-25T01:04:27.329Z,1.05
2019-01-25T01:04:53.528Z,0.98
2019-01-25T01:05:19.682Z,1.01
2019-01-25T01:05:45.832Z,1.01
2019-01-25T01:06:11.986Z,1.04
2019-01-25T01:06:38.184Z,1.02
2019-01-25T01:07:04.331Z,0.99
2019-01-25T01:07:30.481Z,0.94
2019-01-25T01:07:56.638Z,1.02
2019-01-25T01:08:22.832Z,0.92
2019-01-25T01:08:48.980Z,0.91
2019-01-25T01:09:15.127Z,0.95
2019-01-25T01:09:41.281Z,1.04
2019-01-25T01:10:13.729Z,1.02
2019-01-25T01:10:34.612Z,1.01
2019-01-25T01:11:00.762Z,0.98
2019-01-25T01:11:26.915Z,1.04
2019-01-25T01:11:53.068Z,0.98
2019-01-25T01:12:19.220Z,0.98
2019-01-25T01:12:45.376Z,0.94
2019-01-25T01:13:11.533Z,0.98
2019-01-25T01:13:37.714Z,0.92
2019-01-25T01:14:03.897Z,0.88
2019-01-25T01:14:30.054Z,0.83
2019-01-25T01:14:56.214Z,0.84
2019-01-25T01:15:22.434Z,0.81
2019-01-25T01:15:48.583Z,0.84
2019-01-25T01:16:14.735Z,0.8
2019-01-25T01:16:40.884Z,0.81
2019-01-25T01:17:07.047Z,0.94
2019-01-25T01:17:33.192Z,0.98
2019-01-25T01:17:59.342Z,0.95
2019-01-25T01:18:25.493Z,0.95
2019-01-25T01:18:51.655Z,0.95
2019-01-25T01:19:17.810Z,0.96
2019-01-25T01:19:44.002Z,0.98
2019-01-25T01:20:10.155Z,0.99
2019-01-25T01:20:36.306Z,1.01
2019-01-25T01:21:02.457Z,1.05
2019-01-25T01:21:28.609Z,1.01
2019-01-25T01:21:54.762Z,1.02
2019-01-25T01:22:20.914Z,1.12
2019-01-25T01:22:47.069Z,1.14
2019-01-25T01:23:13.221Z,1.14
2019-01-25T01:23:39.371Z,1.14
2019-01-25T01:24:05.518Z,1.1
2019-01-25T01:24:31.670Z,1.1
2019-01-25T01:24:57.823Z,1.1
2019-01-25T01:25:23.977Z,1.1
2019-01-25T01:25:50.126Z,1.1
2019-01-25T01:26:16.283Z,1.14
2019-01-25T01:26:42.433Z,1.14
2019-01-25T01:27:08.590Z,1.28
2019-01-25T01:27:34.740Z,1.13
2019-01-25T01:28:00.905Z,1.16
2019-01-25T01:28:27.054Z,1.2
2019-01-25T01:28:53.216Z,1.2
2019-01-25T01:29:19.362Z,1.23
2019-01-25T01:29:45.520Z,1.14
2019-01-25T01:30:11.678Z,1.17
2019-01-25T01:30:37.830Z,1.16
2019-01-25T01:31:03.982Z,1.23
2019-01-25T01:31:30.133Z,1.2
2019-01-25T01:31:56.368Z,1.3
2019-01-25T01:32:22.555Z,1.22
2019-01-25T01:32:48.712Z,1.23
2019-01-25T01:33:14.866Z,1.23
2019-01-25T01:33:41.054Z,1.3
2019-01-25T01:34:07.204Z,1.3
2019-01-25T01:34:33.357Z,1.23
2019-01-25T01:34:59.505Z,1.24
2019-01-25T01:35:25.653Z,1.34
2019-01-25T01:35:51.809Z,1.28
2019-01-25T01:36:17.967Z,1.26
2019-01-25T01:36:44.160Z,1.24
2019-01-25T01:37:10.311Z,1.2
2019-01-25T01:37:36.469Z,1.3
2019-01-25T01:38:02.658Z,1.3
2019-01-25T01:38:28.812Z,1.31
2019-01-25T01:38:54.970Z,1.24
2019-01-25T01:39:21.125Z,1.34
2019-01-25T01:39:47.322Z,1.26
2019-01-25T01:40:13.472Z,1.34
2019-01-25T01:40:39.654Z,1.34
2019-01-25T01:41:05.812Z,1.34
2019-01-25T01:41:31.959Z,1.32
2019-01-25T01:41:58.139Z,1.3
2019-01-25T01:42:24.271Z,1.31
2019-01-25T01:42:50.424Z,1.32
2019-01-25T01:43:16.576Z,1.37
2019-01-25T01:43:42.732Z,1.38
2019-01-25T01:44:08.895Z,1.35
2019-01-25T01:44:35.083Z,1.3
2019-01-25T01:45:01.236Z,1.34
2019-01-25T01:45:27.380Z,1.38
2019-01-25T01:45:53.537Z,1.32
2019-01-25T01:46:19.685Z,1.34
2019-01-25T01:46:45.838Z,1.31
2019-01-25T01:47:12.039Z,1.24
2019-01-25T01:47:38.355Z,1.2
2019-01-25T01:48:04.507Z,1.19
2019-01-25T01:48:30.655Z,1.14
2019-01-25T01:48:56.811Z,1.02
2019-01-25T01:49:22.970Z,1.01
2019-01-25T01:49:49.162Z,0.98
2019-01-25T01:50:15.321Z,0.92
2019-01-25T01:50:41.472Z,0.95
2019-01-25T01:51:07.621Z,0.94
2019-01-25T01:51:33.780Z,0.8
2019-01-25T01:51:59.971Z,0.77
2019-01-25T01:52:26.083Z,0.81
2019-01-25T01:52:52.239Z,0.77
2019-01-25T01:53:18.394Z,0.77
2019-01-25T01:53:44.543Z,0.78
2019-01-25T01:54:10.694Z,0.81
2019-01-25T01:54:36.888Z,0.81
2019-01-25T01:55:03.043Z,0.81
2019-01-25T01:55:29.194Z,0.74
2019-01-25T01:55:55.346Z,0.87
2019-01-25T01:56:21.539Z,0.84
2019-01-25T01:56:47.686Z,0.77
2019-01-25T01:57:13.842Z,0.86
2019-01-25T01:57:39.992Z,0.77
2019-01-25T01:58:06.192Z,0.83
2019-01-25T01:58:32.338Z,0.81
2019-01-25T01:58:58.493Z,0.73
2019-01-25T01:59:24.682Z,0.77
2019-01-25T01:59:50.837Z,0.66
2019-01-25T02:00:16.983Z,0.7
2019-01-25T02:00:43.142Z,0.84
2019-01-25T02:01:09.374Z,0.77
2019-01-25T02:01:35.522Z,0.76
2019-01-25T02:02:01.672Z,0.84
2019-01-25T02:02:27.834Z,0.88
2019-01-25T02:02:53.983Z,0.94
2019-01-25T02:03:20.179Z,0.92
2019-01-25T02:03:46.328Z,0.94
2019-01-25T02:04:12.483Z,0.98
2019-01-25T02:04:38.633Z,1.05
2019-01-25T02:05:04.781Z,1.02
2019-01-25T02:05:30.941Z,0.99
2019-01-25T02:05:57.091Z,1.02
2019-01-25T02:06:23.253Z,0.95
2019-01-25T02:06:49.402Z,1.02
2019-01-25T02:07:15.561Z,1.1
2019-01-25T02:07:41.708Z,1.1
2019-01-25T02:08:07.871Z,1.14
2019-01-25T02:08:34.020Z,1.1
2019-01-25T02:09:00.217Z,1.12
2019-01-25T02:09:26.372Z,1.1
2019-01-25T02:09:52.524Z,1.08
2019-01-25T02:10:18.672Z,1.14
2019-01-25T02:10:45.827Z,1.22
2019-01-25T02:11:12.020Z,1.17
2019-01-25T02:11:38.168Z,1.22
2019-01-25T02:12:04.326Z,1.22
2019-01-25T02:12:30.479Z,1.32
2019-01-25T02:12:56.663Z,1.23
2019-01-25T02:13:22.855Z,1.3
2019-01-25T02:13:49.016Z,1.26
2019-01-25T02:14:15.166Z,1.35
2019-01-25T02:14:41.324Z,1.28
2019-01-25T02:15:07.470Z,1.3
2019-01-25T02:15:33.631Z,1.24
2019-01-25T02:15:59.783Z,1.23
2019-01-25T02:16:25.940Z,1.26
2019-01-25T02:16:52.089Z,1.23
2019-01-25T02:17:18.290Z,1.19
2019-01-25T02:17:44.498Z,1.16
2019-01-25T02:18:10.620Z,1.17
2019-01-25T02:18:36.815Z,1.23
2019-01-25T02:19:02.976Z,1.2
2019-01-25T02:19:29.126Z,1.22
2019-01-25T02:19:55.273Z,1.2
2019-01-25T02:20:21.430Z,1.3
2019-01-25T02:20:47.584Z,1.28
2019-01-25T02:21:13.738Z,1.28
2019-01-25T02:21:39.894Z,1.3
2019-01-25T02:22:06.090Z,1.24
2019-01-25T02:22:32.317Z,1.23
2019-01-25T02:22:58.475Z,1.19
2019-01-25T02:23:24.626Z,1.22
2019-01-25T02:23:50.778Z,1.14
2019-01-25T02:24:16.930Z,1.19
2019-01-25T02:24:43.083Z,1.28
2019-01-25T02:25:09.235Z,1.12
2019-01-25T02:25:35.393Z,1.1
2019-01-25T02:26:01.541Z,1.08
2019-01-25T02:26:27.691Z,1.1
2019-01-25T02:26:53.887Z,1.16
2019-01-25T02:27:20.034Z,1.04
2019-01-25T02:27:46.184Z,1.05
2019-01-25T02:28:12.342Z,1.02
2019-01-25T02:28:38.496Z,0.98
2019-01-25T02:29:04.653Z,1.01
2019-01-25T02:29:30.868Z,1.05
2019-01-25T02:29:56.991Z,1.05
2019-01-25T02:30:23.181Z,1.14
2019-01-25T02:30:49.371Z,1.1
2019-01-25T02:31:15.532Z,1.16
2019-01-25T02:31:41.721Z,1.08
2019-01-25T02:32:07.903Z,1.12
2019-01-25T02:32:34.057Z,1.08
2019-01-25T02:33:00.248Z,1.12
2019-01-25T02:33:26.478Z,1.01
2019-01-25T02:33:52.668Z,0.98
2019-01-25T02:34:18.827Z,1.05
2019-01-25T02:34:44.983Z,1.05
2019-01-25T02:35:11.129Z,0.98
2019-01-25T02:35:37.290Z,0.99
2019-01-25T02:36:03.438Z,1.05
2019-01-25T02:36:29.628Z,1.02
2019-01-25T02:36:55.778Z,1.01
2019-01-25T02:37:21.942Z,0.91
2019-01-25T02:37:48.129Z,0.96
2019-01-25T02:38:14.287Z,1.01
2019-01-25T02:38:40.436Z,0.94
2019-01-25T02:39:06.586Z,0.96
2019-01-25T02:39:32.743Z,1.01
2019-01-25T02:39:58.937Z,0.96
2019-01-25T02:40:25.091Z,0.96
2019-01-25T02:40:52.259Z,0.96
2019-01-25T02:41:18.456Z,0.98
2019-01-25T02:41:44.652Z,0.98
2019-01-25T02:42:10.798Z,0.99
2019-01-25T02:42:36.984Z,0.95
2019-01-25T02:43:03.144Z,0.99
2019-01-25T02:43:29.298Z,0.94
2019-01-25T02:43:55.488Z,0.92
2019-01-25T02:44:21.675Z,0.87
2019-01-25T02:44:47.837Z,0.94
2019-01-25T02:45:13.986Z,1.04
2019-01-25T02:45:40.185Z,0.99
2019-01-25T02:46:06.415Z,0.96
2019-01-25T02:46:32.566Z,0.98
2019-01-25T02:46:58.719Z,0.96
2019-01-25T02:47:24.918Z,1.01
2019-01-25T02:47:51.060Z,0.94
2019-01-25T02:48:17.209Z,0.84
2019-01-25T02:48:43.371Z,0.92
2019-01-25T02:49:09.556Z,0.92
2019-01-25T02:49:35.792Z,0.92
2019-01-25T02:50:01.945Z,0.88
2019-01-25T02:50:28.166Z,0.81
2019-01-25T02:50:54.394Z,0.94
2019-01-25T02:51:20.549Z,0.92
2019-01-25T02:51:46.700Z,0.91
2019-01-25T02:52:12.898Z,0.74
2019-01-25T02:52:39.055Z,0.81
2019-01-25T02:53:05.269Z,0.8
2019-01-25T02:53:31.424Z,0.74
2019-01-25T02:53:57.578Z,0.78
2019-01-25T02:54:23.768Z,0.68
2019-01-25T02:54:49.988Z,0.7
2019-01-25T02:55:16.273Z,0.76
2019-01-25T02:55:42.464Z,0.78
2019-01-25T02:56:08.662Z,0.83
2019-01-25T02:56:34.811Z,0.84
2019-01-25T02:57:00.971Z,0.91
2019-01-25T02:57:27.160Z,0.87
2019-01-25T02:57:53.314Z,0.94
2019-01-25T02:58:19.467Z,1.02
2019-01-25T02:58:45.625Z,0.98
2019-01-25T02:59:11.771Z,1.01
2019-01-25T02:59:38.003Z,0.94
2019-01-25T03:00:04.193Z,1.05
2019-01-25T03:00:30.378Z,1.12
2019-01-25T03:00:56.558Z,1.13
2019-01-25T03:01:22.720Z,1.06
2019-01-25T03:01:48.880Z,1.12
2019-01-25T03:02:15.027Z,1.14
2019-01-25T03:02:41.174Z,1.1
2019-01-25T03:03:07.334Z,1.13
2019-01-25T03:03:33.523Z,1.22
2019-01-25T03:03:59.708Z,1.1
2019-01-25T03:04:25.895Z,1.13
2019-01-25T03:04:52.047Z,1.23
2019-01-25T03:05:18.305Z,1.12
2019-01-25T03:05:44.435Z,1.17
2019-01-25T03:06:10.590Z,1.19
2019-01-25T03:06:36.742Z,1.19
2019-01-25T03:07:02.938Z,1.19
2019-01-25T03:07:29.123Z,1.22
2019-01-25T03:07:55.276Z,1.23
2019-01-25T03:08:21.427Z,1.23
2019-01-25T03:08:47.586Z,1.32
2019-01-25T03:09:13.774Z,1.3
2019-01-25T03:09:39.965Z,1.32
2019-01-25T03:10:06.119Z,1.26
2019-01-25T03:10:33.292Z,1.3
2019-01-25T03:11:00.438Z,1.28
2019-01-25T03:11:26.597Z,1.24
2019-01-25T03:11:52.745Z,1.31
2019-01-25T03:12:18.907Z,1.22
2019-01-25T03:12:45.061Z,1.22
2019-01-25T03:13:11.244Z,1.2
2019-01-25T03:13:37.398Z,1.19
2019-01-25T03:14:03.590Z,1.17
2019-01-25T03:14:29.742Z,1.14
2019-01-25T03:14:55.936Z,1.14
2019-01-25T03:15:22.208Z,1.23
2019-01-25T03:15:48.359Z,1.14
2019-01-25T03:16:14.509Z,1.04
2019-01-25T03:16:40.659Z,0.98
2019-01-25T03:17:06.823Z,0.92
2019-01-25T03:17:33.010Z,0.92
2019-01-25T03:17:59.160Z,0.99
2019-01-25T03:18:25.306Z,1.04
2019-01-25T03:18:51.463Z,1.01
2019-01-25T03:19:17.619Z,1.01
2019-01-25T03:19:43.770Z,1.02
2019-01-25T03:20:09.913Z,1.05
2019-01-25T03:20:36.108Z,0.98
2019-01-25T03:21:02.263Z,1.01
2019-01-25T03:21:28.413Z,1.04
2019-01-25T03:21:54.568Z,1.01
2019-01-25T03:22:20.724Z,1.08
2019-01-25T03:22:46.880Z,1.12
2019-01-25T03:23:13.032Z,1.14
2019-01-25T03:23:39.196Z,1.1
2019-01-25T03:24:05.403Z,1.13
2019-01-25T03:24:31.573Z,1.12
2019-01-25T03:24:57.790Z,1.04
2019-01-25T03:25:23.979Z,0.96
2019-01-25T03:25:50.166Z,0.91
2019-01-25T03:26:16.361Z,1.02
2019-01-25T03:26:42.511Z,0.88
2019-01-25T03:27:08.664Z,0.95
2019-01-25T03:27:34.818Z,0.98
2019-01-25T03:28:00.969Z,0.87
2019-01-25T03:28:27.125Z,0.78
2019-01-25T03:28:53.270Z,0.78
2019-01-25T03:29:19.434Z,0.83
2019-01-25T03:29:45.584Z,0.88
2019-01-25T03:30:11.777Z,0.94
2019-01-25T03:30:37.975Z,0.98
2019-01-25T03:31:04.127Z,0.92
2019-01-25T03:31:30.395Z,0.96
2019-01-25T03:31:57.572Z,0.95
2019-01-25T03:32:23.760Z,0.96
2019-01-25T03:32:50.008Z,1.01
2019-01-25T03:33:16.218Z,0.96
2019-01-25T03:33:42.363Z,0.94
2019-01-25T03:34:08.518Z,0.94
2019-01-25T03:34:34.715Z,0.91
2019-01-25T03:35:00.903Z,0.99
2019-01-25T03:35:27.086Z,0.99
2019-01-25T03:35:53.245Z,0.99
2019-01-25T03:36:19.397Z,0.96
2019-01-25T03:36:45.547Z,0.95
2019-01-25T03:37:11.708Z,0.98
2019-01-25T03:37:37.854Z,1.01
2019-01-25T03:38:04.009Z,0.99
2019-01-25T03:38:30.159Z,1.01
2019-01-25T03:38:56.329Z,1.01
2019-01-25T03:39:22.484Z,0.99
2019-01-25T03:39:48.641Z,1.01
2019-01-25T03:40:14.793Z,1.05
2019-01-25T03:40:40.983Z,0.94
2019-01-25T03:41:08.169Z,1.06
2019-01-25T03:41:34.324Z,0.91
2019-01-25T03:42:00.515Z,0.91
2019-01-25T03:42:26.709Z,0.78
2019-01-25T03:42:52.855Z,0.84
2019-01-25T03:43:19.043Z,0.83
2019-01-25T03:43:45.195Z,0.73
2019-01-25T03:44:11.346Z,0.8
2019-01-25T03:44:37.501Z,0.74
2019-01-25T03:45:03.649Z,0.68
2019-01-25T03:45:29.804Z,0.65
2019-01-25T03:45:55.954Z,0.69
2019-01-25T03:46:22.144Z,0.7
2019-01-25T03:46:48.308Z,0.69
2019-01-25T03:47:14.536Z,0.74
2019-01-25T03:47:40.687Z,0.68
2019-01-25T03:48:06.948Z,0.66
2019-01-25T03:48:33.101Z,0.62
2019-01-25T03:48:59.251Z,0.66
2019-01-25T03:49:25.468Z,0.63
2019-01-25T03:49:51.630Z,0.65
2019-01-25T03:50:17.778Z,0.65
2019-01-25T03:50:43.934Z,0.73
2019-01-25T03:51:10.128Z,0.69
2019-01-25T03:51:36.275Z,0.74
2019-01-25T03:52:02.427Z,0.63
2019-01-25T03:52:28.587Z,0.65
2019-01-25T03:52:54.771Z,0.63
2019-01-25T03:53:20.930Z,0.74
2019-01-25T03:53:47.082Z,0.59
2019-01-25T03:54:13.236Z,0.6
2019-01-25T03:54:39.383Z,0.59
2019-01-25T03:55:05.598Z,0.62
2019-01-25T03:55:31.787Z,0.63
2019-01-25T03:55:57.974Z,0.58
2019-01-25T03:56:24.131Z,0.6
2019-01-25T03:56:50.285Z,0.62
2019-01-25T03:57:16.480Z,0.65
2019-01-25T03:57:42.635Z,0.62
2019-01-25T03:58:08.786Z,0.47
2019-01-25T03:58:34.978Z,0.43
2019-01-25T03:59:01.133Z,0.41
2019-01-25T03:59:27.288Z,0.5
2019-01-25T03:59:53.437Z,0.56
2019-01-25T04:00:19.589Z,0.37
2019-01-25T04:00:45.755Z,0.43
2019-01-25T04:01:11.907Z,0.4
2019-01-25T04:01:38.090Z,0.32
2019-01-25T04:02:04.246Z,0.31
2019-01-25T04:02:30.427Z,0.32
2019-01-25T04:02:56.577Z,0.36
2019-01-25T04:03:23.718Z,0.37
2019-01-25T04:03:49.862Z,0.41
2019-01-25T04:04:16.013Z,0.49
2019-01-25T04:04:42.270Z,0.52
2019-01-25T04:05:08.422Z,0.44
2019-01-25T04:05:34.572Z,0.5
2019-01-25T04:06:00.803Z,0.5
2019-01-25T04:06:26.954Z,0.47
2019-01-25T04:06:53.112Z,0.52
2019-01-25T04:07:19.264Z,0.4
2019-01-25T04:07:45.449Z,0.46
2019-01-25T04:08:11.607Z,0.39
2019-01-25T04:08:37.757Z,0.39
2019-01-25T04:09:03.903Z,0.36
2019-01-25T04:09:30.056Z,0.37
2019-01-25T04:09:56.195Z,0.34
2019-01-25T04:10:22.357Z,0.23
2019-01-25T04:10:48.549Z,0.29
2019-01-25T04:11:15.718Z,0.36
2019-01-25T04:11:41.873Z,0.37
2019-01-25T04:12:08.093Z,0.44
2019-01-25T04:12:34.246Z,0.32
2019-01-25T04:13:00.437Z,0.36
2019-01-25T04:13:26.626Z,0.43
2019-01-25T04:13:52.814Z,0.47
2019-01-25T04:14:18.964Z,0.46
2019-01-25T04:14:45.122Z,0.47
2019-01-25T04:15:11.279Z,0.47
2019-01-25T04:15:37.428Z,0.49
2019-01-25T04:16:03.588Z,0.5
2019-01-25T04:16:29.734Z,0.5
2019-01-25T04:16:55.884Z,0.6
2019-01-25T04:17:22.044Z,0.59
2019-01-25T04:17:48.195Z,0.59
2019-01-25T04:18:14.351Z,0.65
2019-01-25T04:18:40.537Z,0.68
2019-01-25T04:19:06.735Z,0.59
2019-01-25T04:19:32.996Z,0.69
2019-01-25T04:19:59.156Z,0.62
2019-01-25T04:20:25.312Z,0.69
2019-01-25T04:20:51.468Z,0.62
2019-01-25T04:21:17.652Z,0.7
2019-01-25T04:21:43.812Z,0.73
2019-01-25T04:22:09.961Z,0.68
2019-01-25T04:22:36.124Z,0.77
2019-01-25T04:23:02.258Z,0.78
2019-01-25T04:23:28.423Z,0.8
2019-01-25T04:23:54.581Z,0.77
2019-01-25T04:24:20.766Z,0.74
2019-01-25T04:24:46.922Z,0.7
2019-01-25T04:25:13.121Z,0.73
2019-01-25T04:25:39.267Z,0.77
2019-01-25T04:26:05.426Z,0.74
2019-01-25T04:26:31.579Z,0.81
2019-01-25T04:26:57.769Z,0.73
2019-01-25T04:27:23.932Z,0.78
2019-01-25T04:27:50.084Z,0.77
2019-01-25T04:28:16.275Z,0.8
2019-01-25T04:28:42.506Z,0.73
2019-01-25T04:29:08.663Z,0.8
2019-01-25T04:29:34.817Z,0.81
2019-01-25T04:30:00.976Z,0.8
2019-01-25T04:30:27.126Z,0.8
2019-01-25T04:30:54.012Z,0.8
2019-01-25T04:31:20.173Z,0.81
2019-01-25T04:31:46.333Z,0.77
2019-01-25T04:32:12.481Z,0.66
2019-01-25T04:32:38.639Z,0.77
2019-01-25T04:33:04.830Z,0.68
2019-01-25T04:33:30.975Z,0.63
2019-01-25T04:33:57.133Z,0.73
2019-01-25T04:34:23.329Z,0.68
2019-01-25T04:34:49.476Z,0.7
2019-01-25T04:35:15.665Z,0.8
2019-01-25T04:35:41.873Z,0.8
2019-01-25T04:36:08.046Z,0.81
2019-01-25T04:36:34.238Z,0.86
2019-01-25T04:37:00.386Z,0.83
2019-01-25T04:37:26.582Z,0.8
2019-01-25T04:37:52.820Z,0.78
2019-01-25T04:38:19.011Z,0.83
2019-01-25T04:38:45.196Z,0.83
2019-01-25T04:39:11.356Z,0.74
2019-01-25T04:39:37.547Z,0.94
2019-01-25T04:40:03.699Z,0.88
2019-01-25T04:40:29.846Z,0.96
2019-01-25T04:40:56.006Z,0.91
2019-01-25T04:41:23.151Z,0.95
2019-01-25T04:41:49.341Z,0.88
2019-01-25T04:42:15.526Z,0.74
2019-01-25T04:42:41.682Z,0.77
2019-01-25T04:43:07.868Z,0.83
2019-01-25T04:43:34.020Z,0.92
2019-01-25T04:44:00.175Z,0.95
2019-01-25T04:44:26.328Z,0.96
2019-01-25T04:44:52.518Z,0.96
2019-01-25T04:45:18.704Z,0.94
2019-01-25T04:45:44.868Z,0.92
2019-01-25T04:46:11.019Z,0.94
2019-01-25T04:46:37.175Z,0.8
2019-01-25T04:47:03.322Z,0.81
2019-01-25T04:47:29.470Z,0.78
2019-01-25T04:47:55.681Z,0.81
2019-01-25T04:48:21.923Z,0.8
2019-01-25T04:48:48.030Z,0.81
2019-01-25T04:49:14.184Z,0.86
2019-01-25T04:49:40.355Z,0.87
2019-01-25T04:50:06.531Z,0.76
2019-01-25T04:50:32.696Z,0.7
2019-01-25T04:50:58.887Z,0.76
2019-01-25T04:51:25.044Z,0.63
2019-01-25T04:51:51.239Z,0.7
2019-01-25T04:52:17.465Z,0.74
2019-01-25T04:52:43.630Z,0.76
2019-01-25T04:53:09.778Z,0.74
2019-01-25T04:53:35.962Z,0.73
2019-01-25T04:54:02.121Z,0.7
2019-01-25T04:54:28.279Z,0.73
2019-01-25T04:54:54.432Z,0.74
2019-01-25T04:55:20.620Z,0.73
2019-01-25T04:55:46.775Z,0.73
2019-01-25T04:56:13.001Z,0.65
2019-01-25T04:56:39.145Z,0.7
2019-01-25T04:57:05.333Z,0.73
2019-01-25T04:57:31.486Z,0.7
2019-01-25T04:57:57.637Z,0.65
2019-01-25T04:58:23.870Z,0.74
2019-01-25T04:58:50.021Z,0.66
2019-01-25T04:59:16.215Z,0.62
2019-01-25T04:59:42.365Z,0.7
2019-01-25T05:00:08.521Z,0.74
2019-01-25T05:00:34.696Z,0.59
2019-01-25T05:01:00.854Z,0.62
2019-01-25T05:01:27.007Z,0.65
2019-01-25T05:01:53.202Z,0.63
2019-01-25T05:02:19.329Z,0.68
2019-01-25T05:02:45.519Z,0.52
2019-01-25T05:03:11.651Z,0.65
2019-01-25T05:03:37.781Z,0.59
2019-01-25T05:04:03.934Z,0.59
2019-01-25T05:04:30.058Z,0.59
2019-01-25T05:04:56.165Z,0.59
2019-01-25T05:05:22.302Z,0.66
2019-01-25T05:05:48.440Z,0.59
2019-01-25T05:06:14.537Z,0.59
2019-01-25T05:06:40.634Z,0.63
2019-01-25T05:07:06.744Z,0.62
2019-01-25T05:07:32.876Z,0.63
2019-01-25T05:07:59.004Z,0.55
2019-01-25T05:08:26.098Z,0.49
2019-01-25T05:08:52.208Z,0.6
2019-01-25T05:09:18.310Z,0.6
2019-01-25T05:09:44.445Z,0.56
2019-01-25T05:10:10.568Z,0.63
2019-01-25T05:10:36.670Z,0.62
2019-01-25T05:11:02.806Z,0.6
2019-01-25T05:11:29.913Z,0.52
2019-01-25T05:11:56.020Z,0.47
2019-01-25T05:12:22.125Z,0.56
2019-01-25T05:12:49.005Z,0.55
2019-01-25T05:13:15.187Z,0.59
2019-01-25T05:13:42.197Z,0.5
2019-01-25T05:14:08.297Z,0.5
2019-01-25T05:14:34.426Z,0.46
2019-01-25T05:15:00.536Z,0.56
2019-01-25T05:15:26.636Z,0.5
2019-01-25T05:15:52.743Z,0.58
2019-01-25T05:16:18.877Z,0.52
2019-01-25T05:16:44.977Z,0.62
2019-01-25T05:17:11.083Z,0.44
2019-01-25T05:17:37.221Z,0.55
2019-01-25T05:18:03.319Z,0.5
2019-01-25T05:18:29.476Z,0.63
2019-01-25T05:18:55.574Z,0.55
2019-01-25T05:19:21.679Z,0.66
2019-01-25T05:19:47.781Z,0.65
2019-01-25T05:20:13.883Z,0.59
2019-01-25T05:20:40.039Z,0.59
2019-01-25T05:21:06.599Z,0.62
2019-01-25T05:21:32.700Z,0.65
2019-01-25T05:21:58.803Z,0.76
2019-01-25T05:22:24.898Z,0.59
2019-01-25T05:22:51.008Z,0.73
2019-01-25T05:23:17.132Z,0.77
2019-01-25T05:23:43.233Z,0.66
2019-01-25T05:24:09.334Z,0.58
2019-01-25T05:24:35.473Z,0.69
2019-01-25T05:25:01.603Z,0.59
2019-01-25T05:25:27.705Z,0.63
2019-01-25T05:25:53.830Z,0.6
2019-01-25T05:26:19.938Z,0.6
2019-01-25T05:26:46.076Z,0.62
2019-01-25T05:27:12.179Z,0.66
2019-01-25T05:27:38.273Z,0.66
2019-01-25T05:28:04.413Z,0.68
2019-01-25T05:28:30.543Z,0.63
2019-01-25T05:28:56.681Z,0.65
2019-01-25T05:29:22.777Z,0.68
2019-01-25T05:29:48.902Z,0.69
2019-01-25T05:30:15.014Z,0.65
2019-01-25T05:30:41.141Z,0.76
2019-01-25T05:31:07.255Z,0.66
2019-01-25T05:31:33.385Z,0.62
2019-01-25T05:31:59.483Z,0.69
2019-01-25T05:32:25.586Z,0.76
2019-01-25T05:32:51.691Z,0.74
2019-01-25T05:33:17.790Z,0.7
2019-01-25T05:33:43.932Z,0.76
2019-01-25T05:34:10.065Z,0.74
2019-01-25T05:34:36.171Z,0.74
2019-01-25T05:35:02.272Z,0.84
2019-01-25T05:35:28.371Z,0.74
2019-01-25T05:35:54.474Z,0.86
2019-01-25T05:36:20.606Z,0.84
2019-01-25T05:36:46.745Z,0.73
2019-01-25T05:37:12.842Z,0.8
2019-01-25T05:37:38.953Z,0.81
2019-01-25T05:38:05.084Z,0.77
2019-01-25T05:38:31.211Z,0.81
2019-01-25T05:38:57.318Z,0.76
2019-01-25T05:39:23.426Z,0.84
2019-01-25T05:39:49.534Z,0.87
2019-01-25T05:40:15.693Z,0.8
2019-01-25T05:40:41.803Z,0.77
2019-01-25T05:41:07.933Z,0.78
2019-01-25T05:41:35.026Z,0.81
2019-01-25T05:42:01.122Z,0.81
2019-01-25T05:42:27.226Z,0.77
2019-01-25T05:42:53.329Z,0.68
2019-01-25T05:43:19.429Z,0.73
2019-01-25T05:43:45.528Z,0.63
2019-01-25T05:44:11.647Z,0.63
2019-01-25T05:44:37.764Z,0.74
2019-01-25T05:45:03.887Z,0.66
2019-01-25T05:45:29.995Z,0.63
2019-01-25T05:45:56.103Z,0.65
2019-01-25T05:46:22.224Z,0.65
2019-01-25T05:46:48.334Z,0.55
2019-01-25T05:47:14.438Z,0.65
2019-01-25T05:47:40.561Z,0.74
2019-01-25T05:48:06.657Z,0.6
2019-01-25T05:48:32.762Z,0.66
2019-01-25T05:48:58.862Z,0.68
2019-01-25T05:49:24.962Z,0.63
2019-01-25T05:49:51.064Z,0.65